createdAt,value
2017-10-05T00:00:14.701Z,11.30
2017-10-05T00:02:43.054Z,11.27
2017-10-05T00:05:11.398Z,11.77
2017-10-05T00:07:39.757Z,11.47
2017-10-05T00:10:08.102Z,11.97
2017-10-05T00:12:36.482Z,10.83
2017-10-05T00:15:04.827Z,10.60
2017-10-05T00:17:33.171Z,9.50
2017-10-05T00:20:01.518Z,9.87
2017-10-05T00:22:29.856Z,10.57
2017-10-05T00:24:58.247Z,10.23
2017-10-05T00:27:26.606Z,9.03
2017-10-05T00:32:28.578Z,11.27
2017-10-05T00:34:56.963Z,9.37
2017-10-05T00:37:25.303Z,9.50
2017-10-05T00:39:53.647Z,10.20
2017-10-05T00:42:21.990Z,9.73
2017-10-05T00:44:50.340Z,10.13
2017-10-05T00:47:18.718Z,9.73
2017-10-05T00:49:47.058Z,10.00
2017-10-05T00:52:15.427Z,9.40
2017-10-05T00:54:43.773Z,9.13
2017-10-05T00:57:12.114Z,11.50
2017-10-05T00:59:40.492Z,8.33
2017-10-05T01:02:08.826Z,8.87
2017-10-05T01:04:37.171Z,8.60
2017-10-05T01:07:05.506Z,9.73
2017-10-05T01:09:33.863Z,8.63
2017-10-05T01:12:02.207Z,8.43
2017-10-05T01:14:30.551Z,8.37
2017-10-05T01:16:58.895Z,6.77
2017-10-05T01:19:27.234Z,8.57
2017-10-05T01:21:55.583Z,7.20
2017-10-05T01:24:23.927Z,7.20
2017-10-05T01:26:52.295Z,6.77
2017-10-05T01:29:20.811Z,6.27
2017-10-05T01:31:49.209Z,7.33
2017-10-05T01:34:17.586Z,7.17
2017-10-05T01:36:46.063Z,7.60
2017-10-05T01:39:14.403Z,8.80
2017-10-05T01:41:42.763Z,8.67
2017-10-05T01:44:11.883Z,9.27
2017-10-05T01:46:40.214Z,8.40
2017-10-05T01:49:08.563Z,8.67
2017-10-05T01:51:36.928Z,8.80
2017-10-05T01:54:05.307Z,10.80
2017-10-05T01:56:33.651Z,9.60
2017-10-05T01:59:02.003Z,9.50
2017-10-05T02:01:30.364Z,7.40
2017-10-05T02:03:58.710Z,8.10
2017-10-05T02:06:27.082Z,7.13
2017-10-05T02:08:55.474Z,7.33
2017-10-05T02:11:23.826Z,5.80
2017-10-05T02:13:52.169Z,6.30
2017-10-05T02:16:20.802Z,6.20
2017-10-05T02:18:49.152Z,6.00
2017-10-05T02:21:17.495Z,6.50
2017-10-05T02:23:45.846Z,6.70
2017-10-05T02:26:14.218Z,5.80
2017-10-05T02:28:42.554Z,6.47
2017-10-05T02:31:10.896Z,7.00
2017-10-05T02:33:39.239Z,5.60
2017-10-05T02:36:07.582Z,6.20
2017-10-05T02:38:35.920Z,5.90
2017-10-05T02:41:04.267Z,5.93
2017-10-05T02:43:32.638Z,4.97
2017-10-05T02:46:01.150Z,5.50
2017-10-05T02:48:29.486Z,5.60
2017-10-05T02:50:57.822Z,6.03
2017-10-05T02:53:26.171Z,4.97
2017-10-05T02:55:54.504Z,5.73
2017-10-05T02:58:22.870Z,4.10
2017-10-05T03:00:51.211Z,4.77
2017-10-05T03:03:19.567Z,5.17
2017-10-05T03:05:47.902Z,5.00
2017-10-05T03:08:16.238Z,4.10
2017-10-05T03:10:44.574Z,3.47
2017-10-05T03:13:13.226Z,3.57
2017-10-05T03:15:41.555Z,3.87
2017-10-05T03:18:09.919Z,2.90
2017-10-05T03:20:38.250Z,2.60
2017-10-05T03:23:06.595Z,2.90
2017-10-05T03:25:34.935Z,2.60
2017-10-05T03:28:03.266Z,2.70
2017-10-05T03:30:31.631Z,2.57
2017-10-05T03:33:00.067Z,3.00
2017-10-05T03:35:28.478Z,2.60
2017-10-05T03:37:56.838Z,3.30
2017-10-05T03:40:25.179Z,3.20
2017-10-05T03:42:53.519Z,3.70
2017-10-05T03:45:21.848Z,4.30
2017-10-05T03:47:50.194Z,4.30
2017-10-05T03:50:18.531Z,5.10
2017-10-05T03:52:46.883Z,4.47
2017-10-05T03:55:15.219Z,4.77
2017-10-05T03:57:43.556Z,4.90
2017-10-05T04:00:11.916Z,5.53
2017-10-05T04:02:40.263Z,5.70
2017-10-05T04:05:08.606Z,7.00
2017-10-05T04:07:36.947Z,6.00
2017-10-05T04:10:05.288Z,6.80
2017-10-05T04:12:33.630Z,6.47
2017-10-05T04:15:01.985Z,6.60
2017-10-05T04:17:30.318Z,5.43
2017-10-05T04:19:58.666Z,4.97
2017-10-05T04:22:27.007Z,5.40
2017-10-05T04:24:55.347Z,5.90
2017-10-05T04:27:23.694Z,6.00
2017-10-05T04:29:52.039Z,6.37
2017-10-05T04:32:20.427Z,5.63
2017-10-05T04:34:48.778Z,5.43
2017-10-05T04:37:17.134Z,4.90
2017-10-05T04:39:45.478Z,4.70
2017-10-05T04:42:13.809Z,4.73
2017-10-05T04:44:42.144Z,4.97
2017-10-05T04:47:10.521Z,4.50
2017-10-05T04:49:38.870Z,5.03
2017-10-05T04:52:07.228Z,5.27
2017-10-05T04:54:35.563Z,4.80
2017-10-05T04:57:03.902Z,5.27
2017-10-05T04:59:32.276Z,4.60
2017-10-05T05:02:00.615Z,4.30
2017-10-05T05:04:28.951Z,4.30
2017-10-05T05:06:57.299Z,4.73
2017-10-05T05:09:25.638Z,5.40
2017-10-05T05:11:53.979Z,5.00
2017-10-05T05:14:22.332Z,4.40
2017-10-05T05:16:50.694Z,4.33
2017-10-05T05:19:19.039Z,3.70
2017-10-05T05:21:47.378Z,3.70
2017-10-05T05:24:15.719Z,4.17
2017-10-05T05:26:44.056Z,3.20
2017-10-05T05:29:12.653Z,3.70
2017-10-05T05:31:41.072Z,3.33
2017-10-05T05:34:09.503Z,2.57
2017-10-05T05:36:37.867Z,2.20
2017-10-05T05:39:06.206Z,2.37
2017-10-05T05:41:34.546Z,2.73
2017-10-05T05:44:03.147Z,2.30
2017-10-05T05:46:31.510Z,2.93
2017-10-05T05:48:59.847Z,2.33
2017-10-05T05:51:28.187Z,2.63
2017-10-05T05:53:56.522Z,2.50
2017-10-05T05:56:24.863Z,3.10
2017-10-05T05:58:53.196Z,2.50
2017-10-05T06:01:21.534Z,2.73
2017-10-05T06:03:49.866Z,2.63
2017-10-05T06:08:54.448Z,2.03
2017-10-05T06:11:22.782Z,2.23
2017-10-05T06:13:51.133Z,1.77
2017-10-05T06:16:19.466Z,2.23
2017-10-05T06:18:47.834Z,1.87
2017-10-05T06:21:16.197Z,1.80
2017-10-05T06:23:44.547Z,1.90
2017-10-05T06:26:12.930Z,2.03
2017-10-05T06:28:41.266Z,2.70
2017-10-05T06:31:09.602Z,2.20
2017-10-05T06:33:37.945Z,2.03
2017-10-05T06:36:06.274Z,1.57
2017-10-05T06:38:34.634Z,1.70
2017-10-05T06:41:02.974Z,1.53
2017-10-05T06:43:31.318Z,1.20
2017-10-05T06:45:59.657Z,1.73
2017-10-05T06:48:27.998Z,1.60
2017-10-05T06:50:56.342Z,1.40
2017-10-05T06:53:24.686Z,2.20
2017-10-05T06:55:53.059Z,1.70
2017-10-05T06:58:21.386Z,1.40
2017-10-05T07:00:49.737Z,1.30
2017-10-05T07:03:18.095Z,1.40
2017-10-05T07:05:46.430Z,1.40
2017-10-05T07:08:14.776Z,1.30
2017-10-05T07:10:43.106Z,1.40
2017-10-05T07:13:11.443Z,1.20
2017-10-05T07:15:39.783Z,1.10
2017-10-05T07:18:08.121Z,1.20
2017-10-05T07:20:36.484Z,1.17
2017-10-05T07:23:04.813Z,1.07
2017-10-05T07:25:33.171Z,1.00
2017-10-05T07:28:01.511Z,1.20
2017-10-05T07:30:29.846Z,1.03
2017-10-05T07:32:58.376Z,1.40
2017-10-05T07:35:26.715Z,1.10
2017-10-05T07:37:55.046Z,1.20
2017-10-05T07:40:23.387Z,1.20
2017-10-05T07:42:51.735Z,1.30
2017-10-05T07:45:20.079Z,1.17
2017-10-05T07:47:48.410Z,1.17
2017-10-05T07:50:17.618Z,1.13
2017-10-05T07:52:45.982Z,1.30
2017-10-05T07:55:14.350Z,1.60
2017-10-05T07:57:42.694Z,1.20
2017-10-05T08:00:11.483Z,1.50
2017-10-05T08:02:39.853Z,1.13
2017-10-05T08:05:08.266Z,1.20
2017-10-05T08:07:36.628Z,1.50
2017-10-05T08:10:05.014Z,1.37
2017-10-05T08:12:33.389Z,1.20
2017-10-05T08:15:01.832Z,1.30
2017-10-05T08:17:30.172Z,1.40
2017-10-05T08:19:58.531Z,1.50
2017-10-05T08:22:26.903Z,1.33
2017-10-05T08:24:55.243Z,1.23
2017-10-05T08:27:23.609Z,1.33
2017-10-05T08:29:52.142Z,1.40
2017-10-05T08:32:20.490Z,1.60
2017-10-05T08:34:48.824Z,1.70
2017-10-05T08:37:17.212Z,2.00
2017-10-05T08:39:45.605Z,1.77
2017-10-05T08:42:13.950Z,2.20
2017-10-05T08:44:42.318Z,1.87
2017-10-05T08:47:10.662Z,2.27
2017-10-05T08:49:39.022Z,2.20
2017-10-05T08:52:07.363Z,2.10
2017-10-05T08:54:35.734Z,1.83
2017-10-05T08:57:04.089Z,1.70
2017-10-05T08:59:32.506Z,1.80
2017-10-05T09:02:00.863Z,1.97
2017-10-05T09:04:29.199Z,1.63
2017-10-05T09:06:57.563Z,1.87
2017-10-05T09:09:25.939Z,2.10
2017-10-05T09:11:54.311Z,1.90
2017-10-05T09:14:22.674Z,2.30
2017-10-05T09:16:51.015Z,2.07
2017-10-05T09:19:19.383Z,1.80
2017-10-05T09:21:47.729Z,2.13
2017-10-05T09:24:16.057Z,2.00
2017-10-05T09:26:44.426Z,2.53
2017-10-05T09:29:12.802Z,2.33
2017-10-05T09:31:41.138Z,2.60
2017-10-05T09:34:09.475Z,2.40
2017-10-05T09:36:37.838Z,2.10
2017-10-05T09:39:06.179Z,2.57
2017-10-05T09:41:34.550Z,2.10
2017-10-05T09:44:03.147Z,2.33
2017-10-05T09:46:31.478Z,2.10
2017-10-05T09:48:59.859Z,2.33
2017-10-05T09:51:28.220Z,1.60
2017-10-05T09:53:56.555Z,1.80
2017-10-05T09:56:24.915Z,1.90
2017-10-05T09:58:53.255Z,2.17
2017-10-05T10:01:21.643Z,2.10
2017-10-05T10:03:49.976Z,1.60
2017-10-05T10:06:18.320Z,1.87
2017-10-05T10:08:46.683Z,1.20
2017-10-05T10:11:15.030Z,1.60
2017-10-05T10:13:43.397Z,1.33
2017-10-05T10:16:11.735Z,1.77
2017-10-05T10:18:40.105Z,1.60
2017-10-05T10:21:08.442Z,1.90
2017-10-05T10:23:36.863Z,2.10
2017-10-05T10:26:05.202Z,2.50
2017-10-05T10:28:33.529Z,2.43
2017-10-05T10:31:01.899Z,3.03
2017-10-05T10:33:30.263Z,2.47
2017-10-05T10:35:58.633Z,3.27
2017-10-05T10:38:27.002Z,1.40
2017-10-05T10:40:55.338Z,1.00
2017-10-05T10:43:23.674Z,1.20
2017-10-05T10:45:52.050Z,1.50
2017-10-05T10:48:20.386Z,1.17
2017-10-05T10:50:48.765Z,1.40
2017-10-05T10:53:17.118Z,0.90
2017-10-05T10:55:45.621Z,1.00
2017-10-05T10:58:14.139Z,0.90
2017-10-05T11:00:42.757Z,0.80
2017-10-05T11:03:11.118Z,0.73
2017-10-05T11:05:39.447Z,0.90
2017-10-05T11:08:07.793Z,0.70
2017-10-05T11:10:36.461Z,0.53
2017-10-05T11:13:04.851Z,0.47
2017-10-05T11:15:33.183Z,0.80
2017-10-05T11:18:01.563Z,1.20
2017-10-05T11:20:29.918Z,1.77
2017-10-05T11:22:58.324Z,1.70
2017-10-05T11:25:26.663Z,2.10
2017-10-05T11:27:55.008Z,2.30
2017-10-05T11:30:23.354Z,2.30
2017-10-05T11:32:51.703Z,2.90
2017-10-05T11:35:20.080Z,3.17
2017-10-05T11:37:48.418Z,3.17
2017-10-05T11:40:16.790Z,2.80
2017-10-05T11:42:45.173Z,3.27
2017-10-05T11:45:13.537Z,2.80
2017-10-05T11:47:42.128Z,1.90
2017-10-05T11:50:10.477Z,1.70
2017-10-05T11:52:38.934Z,1.83
2017-10-05T11:55:07.302Z,2.47
2017-10-05T11:57:35.675Z,1.70
2017-10-05T12:00:04.015Z,1.70
2017-10-05T12:02:32.384Z,1.63
2017-10-05T12:05:00.723Z,1.90
2017-10-05T12:07:29.067Z,1.47
2017-10-05T12:09:57.450Z,1.90
2017-10-05T12:12:25.971Z,1.57
2017-10-05T12:14:54.305Z,1.13
2017-10-05T12:17:22.690Z,1.20
2017-10-05T12:19:51.023Z,1.63
2017-10-05T12:22:19.500Z,1.53
2017-10-05T12:24:47.862Z,1.03
2017-10-05T12:27:16.216Z,1.00
2017-10-05T12:29:44.546Z,1.03
2017-10-05T12:32:12.930Z,1.07
2017-10-05T12:34:41.475Z,1.57
2017-10-05T12:37:09.818Z,1.00
2017-10-05T12:39:38.249Z,1.00
2017-10-05T12:42:06.592Z,0.93
2017-10-05T12:44:34.965Z,0.90
2017-10-05T12:47:04.046Z,1.17
2017-10-05T12:49:32.510Z,0.97
2017-10-05T12:52:01.682Z,0.93
2017-10-05T12:54:30.067Z,0.90
2017-10-05T12:56:58.397Z,0.73
2017-10-05T12:59:26.775Z,0.60
2017-10-05T13:01:55.114Z,0.97
2017-10-05T13:04:23.470Z,0.80
2017-10-05T13:06:51.826Z,0.60
2017-10-05T13:09:20.173Z,0.67
2017-10-05T13:11:48.563Z,1.10
2017-10-05T13:14:16.903Z,0.70
2017-10-05T13:16:45.272Z,1.00
2017-10-05T13:19:13.734Z,1.00
2017-10-05T13:21:42.077Z,0.67
2017-10-05T13:24:10.557Z,0.80
2017-10-05T13:26:38.887Z,0.80
2017-10-05T13:29:07.248Z,0.70
2017-10-05T13:31:36.358Z,1.00
2017-10-05T13:34:04.901Z,1.20
2017-10-05T13:36:33.234Z,1.60
2017-10-05T13:39:01.567Z,1.40
2017-10-05T13:41:29.914Z,1.90
2017-10-05T13:44:03.942Z,1.87
2017-10-05T13:46:32.387Z,0.83
2017-10-05T13:49:01.182Z,1.50
2017-10-05T13:51:29.545Z,1.83
2017-10-05T13:53:57.917Z,0.90
2017-10-05T13:56:26.495Z,1.40
2017-10-05T13:58:54.833Z,1.00
2017-10-05T14:01:23.208Z,1.10
2017-10-05T14:03:51.544Z,1.30
2017-10-05T14:06:19.897Z,0.97
2017-10-05T14:08:48.258Z,1.60
2017-10-05T14:11:16.603Z,1.17
2017-10-05T14:13:45.011Z,1.37
2017-10-05T14:16:13.370Z,1.70
2017-10-05T14:18:41.710Z,1.30
2017-10-05T14:21:10.086Z,1.70
2017-10-05T14:23:38.450Z,1.00
2017-10-05T14:26:06.848Z,1.80
2017-10-05T14:28:35.326Z,1.33
2017-10-05T14:31:03.677Z,0.80
2017-10-05T14:33:32.058Z,1.20
2017-10-05T14:36:00.436Z,1.20
2017-10-05T14:38:28.770Z,0.73
2017-10-05T14:40:57.149Z,1.37
2017-10-05T14:43:25.501Z,1.20
2017-10-05T14:45:53.897Z,2.00
2017-10-05T14:48:22.432Z,1.00
2017-10-05T14:50:50.769Z,1.20
2017-10-05T14:53:19.259Z,1.20
2017-10-05T14:55:47.950Z,1.63
2017-10-05T14:58:16.351Z,1.50
2017-10-05T15:00:44.714Z,1.63
2017-10-05T15:03:13.055Z,1.67
2017-10-05T15:05:41.427Z,1.87
2017-10-05T15:08:09.763Z,1.90
2017-10-05T15:10:38.238Z,1.30
2017-10-05T15:13:06.578Z,1.40
2017-10-05T15:15:34.922Z,1.50
2017-10-05T15:18:03.364Z,1.80
2017-10-05T15:20:31.719Z,1.83
2017-10-05T15:23:00.213Z,2.03
2017-10-05T15:25:28.582Z,3.83
2017-10-05T15:27:56.953Z,1.43
2017-10-05T15:30:25.301Z,2.60
2017-10-05T15:32:53.643Z,1.40
2017-10-05T15:35:22.031Z,1.60
2017-10-05T15:37:50.569Z,1.87
2017-10-05T15:40:18.910Z,1.77
2017-10-05T15:42:47.318Z,2.20
2017-10-05T15:45:15.665Z,2.30
2017-10-05T15:47:44.026Z,2.00
2017-10-05T15:50:12.366Z,2.13
2017-10-05T15:52:40.843Z,2.23
2017-10-05T15:55:09.267Z,2.10
2017-10-05T15:57:37.751Z,1.87
2017-10-05T16:00:06.166Z,1.83
2017-10-05T16:02:34.566Z,1.80
2017-10-05T16:05:02.931Z,2.23
2017-10-05T16:07:31.331Z,2.43
2017-10-05T16:09:59.687Z,2.93
2017-10-05T16:12:28.179Z,2.87
2017-10-05T16:14:56.582Z,3.03
2017-10-05T16:17:24.916Z,2.93
2017-10-05T16:19:53.300Z,2.07
2017-10-05T16:22:21.638Z,2.47
2017-10-05T16:24:50.001Z,3.00
2017-10-05T16:27:18.395Z,3.77
2017-10-05T16:29:46.750Z,3.07
2017-10-05T16:32:15.122Z,4.27
2017-10-05T16:34:43.636Z,4.10
2017-10-05T16:37:12.016Z,3.93
2017-10-05T16:39:40.374Z,4.03
2017-10-05T16:42:08.730Z,3.17
2017-10-05T16:44:37.140Z,2.27
2017-10-05T16:47:05.473Z,2.13
2017-10-05T16:49:33.823Z,2.17
2017-10-05T16:52:02.307Z,2.17
2017-10-05T16:54:30.689Z,1.90
2017-10-05T16:56:59.039Z,2.43
2017-10-05T16:59:27.517Z,3.77
2017-10-05T17:01:55.891Z,2.13
2017-10-05T17:04:24.253Z,2.40
2017-10-05T17:06:52.582Z,2.30
2017-10-05T17:09:20.951Z,2.93
2017-10-05T17:11:49.326Z,3.40
2017-10-05T17:14:17.697Z,2.77
2017-10-05T17:16:46.043Z,2.30
2017-10-05T17:19:14.385Z,3.00
2017-10-05T17:21:42.757Z,2.80
2017-10-05T17:24:11.102Z,2.50
2017-10-05T17:26:39.576Z,2.67
2017-10-05T17:29:07.927Z,2.97
2017-10-05T17:31:36.271Z,2.43
2017-10-05T17:34:04.884Z,2.80
2017-10-05T17:36:33.230Z,3.00
2017-10-05T17:39:01.627Z,3.20
2017-10-05T17:41:29.962Z,3.83
2017-10-05T17:43:59.482Z,3.40
2017-10-05T17:46:27.895Z,4.07
2017-10-05T17:48:56.234Z,4.47
2017-10-05T17:51:24.582Z,5.10
2017-10-05T17:53:52.958Z,5.33
2017-10-05T17:56:21.326Z,4.27
2017-10-05T17:58:49.728Z,5.47
2017-10-05T18:01:18.071Z,6.37
2017-10-05T18:03:47.281Z,4.60
2017-10-05T18:06:15.670Z,5.43
2017-10-05T18:08:44.017Z,4.40
2017-10-05T18:11:12.508Z,4.13
2017-10-05T18:13:40.859Z,4.57
2017-10-05T18:16:09.203Z,3.77
2017-10-05T18:18:37.580Z,4.43
2017-10-05T18:21:05.943Z,3.60
2017-10-05T18:23:34.545Z,3.87
2017-10-05T18:26:03.067Z,3.07
2017-10-05T18:28:31.529Z,4.00
2017-10-05T18:30:59.890Z,3.70
2017-10-05T18:33:28.254Z,4.63
2017-10-05T18:35:56.718Z,3.50
2017-10-05T18:38:25.051Z,2.93
2017-10-05T18:40:53.404Z,2.83
2017-10-05T18:43:21.750Z,2.83
2017-10-05T18:45:50.127Z,2.80
2017-10-05T18:48:18.471Z,2.77
2017-10-05T18:50:46.951Z,2.37
2017-10-05T18:53:15.292Z,2.53
2017-10-05T18:55:43.636Z,2.80
2017-10-05T18:58:11.982Z,3.33
2017-10-05T19:00:40.351Z,3.77
2017-10-05T19:03:08.729Z,4.67
2017-10-05T19:05:37.108Z,3.90
2017-10-05T19:08:05.558Z,3.30
2017-10-05T19:10:33.928Z,4.40
2017-10-05T19:13:02.405Z,3.97
2017-10-05T19:15:30.784Z,4.20
2017-10-05T19:17:59.159Z,3.87
2017-10-05T19:20:27.552Z,4.70
2017-10-05T19:22:57.322Z,5.03
2017-10-05T19:25:25.699Z,5.10
2017-10-05T19:27:54.071Z,4.70
2017-10-05T19:30:22.460Z,5.23
2017-10-05T19:32:50.847Z,5.77
2017-10-05T19:35:19.227Z,5.50
2017-10-05T19:37:47.611Z,5.57
2017-10-05T19:40:15.999Z,7.27
2017-10-05T19:42:44.376Z,6.63
2017-10-05T19:45:12.787Z,7.57
2017-10-05T19:47:41.207Z,6.07
2017-10-05T19:50:09.548Z,5.97
2017-10-05T19:52:37.973Z,5.20
2017-10-05T19:55:06.388Z,5.90
2017-10-05T19:57:34.768Z,5.83
2017-10-05T20:00:03.139Z,5.83
2017-10-05T20:02:31.516Z,6.70
2017-10-05T20:04:59.891Z,4.57
2017-10-05T20:07:28.390Z,4.20
2017-10-05T20:09:56.775Z,4.57
2017-10-05T20:12:25.158Z,3.97
2017-10-05T20:14:53.530Z,4.70
2017-10-05T20:17:34.729Z,4.87
2017-10-05T20:20:09.024Z,4.10
2017-10-05T20:22:42.979Z,3.87
2017-10-05T20:25:17.736Z,3.67
2017-10-05T20:27:51.575Z,3.60
2017-10-05T20:30:24.443Z,3.80
2017-10-05T20:35:47.834Z,3.43
2017-10-05T20:38:16.178Z,3.50
2017-10-05T20:40:44.562Z,3.33
2017-10-05T20:43:12.910Z,3.20
2017-10-05T20:45:41.258Z,4.40
2017-10-05T20:48:09.783Z,4.67
2017-10-05T20:50:38.134Z,4.80
2017-10-05T20:53:06.478Z,4.83
2017-10-05T20:55:34.827Z,5.30
2017-10-05T20:58:03.575Z,4.80
2017-10-05T21:00:31.931Z,5.43
2017-10-05T21:03:00.300Z,4.47
2017-10-05T21:05:28.653Z,4.20
2017-10-05T21:07:56.992Z,4.57
2017-10-05T21:10:25.351Z,4.77
2017-10-05T21:12:53.690Z,4.57
2017-10-05T21:15:22.035Z,5.67
2017-10-05T21:17:50.387Z,4.73
2017-10-05T21:20:18.743Z,4.73
2017-10-05T21:22:47.079Z,4.30
2017-10-05T21:25:15.460Z,4.80
2017-10-05T21:27:43.799Z,4.13
2017-10-05T21:30:12.157Z,3.83
2017-10-05T21:32:40.631Z,3.63
2017-10-05T21:35:08.975Z,4.47
2017-10-05T21:37:37.323Z,3.80
2017-10-05T21:40:05.675Z,4.20
2017-10-05T21:42:34.016Z,3.27
2017-10-05T21:45:02.439Z,3.13
2017-10-05T21:47:30.787Z,3.47
2017-10-05T21:49:59.158Z,3.33
2017-10-05T21:52:27.507Z,3.33
2017-10-05T21:54:55.903Z,3.20
2017-10-05T21:57:24.253Z,2.60
2017-10-05T21:59:52.609Z,3.07
2017-10-05T22:02:20.954Z,4.30
2017-10-05T22:04:49.307Z,3.40
2017-10-05T22:07:17.803Z,2.87
2017-10-05T22:09:46.155Z,3.00
2017-10-05T22:12:14.521Z,3.00
2017-10-05T22:14:42.950Z,3.73
2017-10-05T22:17:11.303Z,3.00
2017-10-05T22:19:39.647Z,2.53
2017-10-05T22:22:08.060Z,2.97
2017-10-05T22:24:36.418Z,2.60
2017-10-05T22:27:04.764Z,3.40
2017-10-05T22:29:33.099Z,2.90
2017-10-05T22:32:01.455Z,3.00
2017-10-05T22:34:29.821Z,3.20
2017-10-05T22:36:58.181Z,3.00
2017-10-05T22:39:26.527Z,3.60
2017-10-05T22:41:54.874Z,3.13
2017-10-05T22:44:23.229Z,3.53
2017-10-05T22:46:51.574Z,3.70
2017-10-05T22:49:19.959Z,3.97
2017-10-05T22:51:48.315Z,3.43
2017-10-05T22:54:16.664Z,2.90
2017-10-05T22:56:45.010Z,3.67
2017-10-05T22:59:13.348Z,3.00
2017-10-05T23:01:41.698Z,4.10
2017-10-05T23:04:10.064Z,3.10
2017-10-05T23:06:38.431Z,3.23
2017-10-05T23:09:06.815Z,3.60
2017-10-05T23:11:35.189Z,3.57
2017-10-05T23:14:03.577Z,3.60
2017-10-05T23:16:31.911Z,3.50
2017-10-05T23:19:00.256Z,3.30
2017-10-05T23:21:28.630Z,3.87
2017-10-05T23:23:56.982Z,3.70
2017-10-05T23:26:25.363Z,3.67
2017-10-05T23:28:53.705Z,3.30
2017-10-05T23:31:22.051Z,3.70
2017-10-05T23:33:50.406Z,4.93
2017-10-05T23:36:18.744Z,4.30
2017-10-05T23:38:47.106Z,3.90
2017-10-05T23:41:15.453Z,3.80
2017-10-05T23:43:43.832Z,4.70
2017-10-05T23:46:12.184Z,4.27
2017-10-05T23:48:40.555Z,4.20
2017-10-05T23:51:08.912Z,4.50
2017-10-05T23:53:37.418Z,5.40
2017-10-05T23:56:05.768Z,3.27
2017-10-05T23:58:34.110Z,4.50
